Huvudsida
METAR-TAF:

METAR-TAF

Flygplatser :

Gran Canarias flygplats

Gran Canaria, Spanien

latitud: 27-56N, longitud: 015-23W, höjd: 23 m

Aktuellt väderrapport

Denna rapport gjordes för 16 minuter sedan, klockan 21:00 UTC
Vind 10 kt från nord
Temperatur 20°C
Fuktighet 73%
Tryck 1020 hPa
Sikt 10 km eller mer
Spridda moln på en höjd av 2500 ft
Brutna moln på en höjd av 3500 ft

METAR: GCLP 142100Z 01010KT 9999 SCT025 BKN035 20/15 Q1020 NOSIG

Tid: 21:16 (21:16 UTC)

Väderprognos

Denna rapport gjordes för 1 timme och 16 minuter sedan, klockan 20:00 UTC
Prognos gäller från 14 kl. 21 UTC till 15 kl. 21 UTC
Vind 10 kt från nord/nordväst
Sikt 10 km eller mer
Spridda moln på en höjd av 3000 ft
Temporärt
från 15 kl. 12 UTC till 15 kl. 19 UTC
Vind 3 kt från ost/sydost

TAF: GCLP 142000Z 1421/1521 34010KT 9999 SCT030 TX21/1515Z TN17/1506Z TEMPO 1512/1519 11003KT

Aktuella väderrapporter och prognoser från 4000 flygplatser (METAR- och TAF-rapporter).

De tillgängliga stationerna syns som gula och röda prickar på kartan.

För musen över prickarna för att se namnen på stationerna.

Klicka sedan för att få väderrapporter och prognoser.

För att ändra kartan: Klicka på de gröna knapparna med ett svart kors på för att zooma in; den gröna knappen med ett streck på för att zooma ut; eller på de gröna pilarna för angränsande kartor.


METAR-TAF: